Pagrindinis puslapis
METAR-TAF:

METAR-TAF

Oro uostai :

Beirutas, Libanas

platuma: 33-49N, ilguma: 035-29E, Aukštis: 29 m

Dabartinis oras

Ataskaita buvo paskelbta 34 minutes, ne 08:00 UTC
Vėjas 7 kt iš Šiaurės Rytų, svyruoja nuo Šiaurės ir Rytų/Šiaurės Rytų
Temperatūra 17°C
Drėgmė 55%
Slėgis 1020 hPa
Matomumas: 8000 m
Išsisklaidę debesys ne aukštis 2600 ft

METAR: OLBA 060800Z 05007KT 010V070 8000 SCT026 17/08 Q1020 NOSIG

Laikas: 10:34 (08:34 UTC)

Prognozė

Ataskaita buvo paskelbta 4 valandos ir 34 minutes, ne 04:00 UTC
Prognozė galioja nuo 06 metu 06 UTC su 07 metu 12 UTC
Vėjas 12 kt iš Šiaurės/Šiaurės Vakarų
Matomumas 10 km arba daugiau
Išsisklaidę debesys ne aukštis 3000 ft
Tapsmas
nuo 06 metu 18 UTC su 06 metu 21 UTC
Vėjas 10 kt iš Rytų/Pietryčių
Tapsmas
nuo 07 metu 00 UTC su 07 metu 03 UTC
Vėjas 10 kt iš Rytų/Šiaurės Rytų
Tapsmas
nuo 07 metu 06 UTC su 07 metu 09 UTC
Vėjas 12 kt iš Šiaurės
Mažai debesys ne aukštis 3000 ft

TAF: OLBA 060400Z 0606/0712 34012KT 9999 SCT030 BECMG 0618/0621 12010KT BECMG 0700/0703 06010KT BECMG 0706/0709 36012KT FEW030

Orai ataskaitas ir orų prognozės (METAR, TAF).

turimą stotys yra geltonos ir raudonos taškus žemėlapyje.

Perkelti pele per norėdami pamatyti stoties vardą.

Tada spustelėkite, norėdami matyti oro stebėjimo ir prognozės.

Norėdami pakeisti žemėlapį: spustelėkite ant žalios mygtukų su juodo kryžiaus žemyn,; žalią mygtuką su brūkšneliu, jei norite nutolinti; arba žalių rodyklių gretimoms žemėlapius.


METAR-TAF: